createdAt,value
2018-04-19T00:00:43.177Z,15.80
2018-04-19T00:03:10.115Z,15.80
2018-04-19T00:05:36.974Z,15.70
2018-04-19T00:08:03.950Z,15.80
2018-04-19T00:10:30.805Z,15.80
2018-04-19T00:12:57.737Z,15.80
2018-04-19T00:15:24.662Z,15.80
2018-04-19T00:17:51.606Z,15.70
2018-04-19T00:20:18.496Z,15.60
2018-04-19T00:22:45.367Z,15.60
2018-04-19T00:25:12.325Z,15.40
2018-04-19T00:27:39.223Z,15.40
2018-04-19T00:30:06.168Z,15.30
2018-04-19T00:32:33.048Z,15.20
2018-04-19T00:35:00.725Z,15.10
2018-04-19T00:37:27.666Z,15.10
2018-04-19T00:39:54.546Z,15.10
2018-04-19T00:42:21.470Z,15.00
2018-04-19T00:44:48.342Z,14.90
2018-04-19T00:47:15.266Z,14.90
2018-04-19T00:49:42.211Z,15.10
2018-04-19T00:52:09.164Z,15.10
2018-04-19T00:54:36.093Z,15.20
2018-04-19T00:57:03.053Z,15.20
2018-04-19T00:59:29.904Z,15.20
2018-04-19T01:01:56.836Z,15.20
2018-04-19T01:04:23.780Z,15.20
2018-04-19T01:06:50.710Z,15.30
2018-04-19T01:09:18.377Z,15.20
2018-04-19T01:11:45.278Z,15.20
2018-04-19T01:14:12.200Z,15.10
2018-04-19T01:16:39.177Z,15.00
2018-04-19T01:19:06.155Z,15.00
2018-04-19T01:21:33.838Z,14.90
2018-04-19T01:24:00.776Z,14.90
2018-04-19T01:26:27.646Z,14.70
2018-04-19T01:28:54.572Z,14.80
2018-04-19T01:31:21.518Z,14.60
2018-04-19T01:33:48.393Z,14.60
2018-04-19T01:36:26.355Z,14.60
2018-04-19T01:38:53.306Z,14.60
2018-04-19T01:41:20.983Z,14.50
2018-04-19T01:43:47.982Z,14.50
2018-04-19T01:46:14.847Z,14.50
2018-04-19T01:48:41.762Z,14.50
2018-04-19T01:51:08.687Z,14.60
2018-04-19T01:53:35.625Z,14.60
2018-04-19T01:56:02.605Z,14.40
2018-04-19T01:58:29.527Z,14.30
2018-04-19T02:00:56.515Z,14.20
2018-04-19T02:03:23.450Z,14.20
2018-04-19T02:05:50.377Z,14.00
2018-04-19T02:08:17.302Z,13.90
2018-04-19T02:10:44.222Z,13.80
2018-04-19T02:13:11.093Z,13.80
2018-04-19T02:15:38.086Z,13.80
2018-04-19T02:18:05.023Z,13.80
2018-04-19T02:20:31.901Z,13.70
2018-04-19T02:22:59.578Z,13.60
2018-04-19T02:25:26.429Z,13.60
2018-04-19T02:27:53.353Z,13.50
2018-04-19T02:30:20.265Z,13.50
2018-04-19T02:32:47.228Z,13.40
2018-04-19T02:35:14.093Z,13.40
2018-04-19T02:37:41.001Z,13.30
2018-04-19T02:40:07.863Z,13.30
2018-04-19T02:42:34.804Z,13.30
2018-04-19T02:45:02.421Z,13.10
2018-04-19T02:47:29.281Z,13.10
2018-04-19T02:49:56.198Z,13.10
2018-04-19T02:52:23.058Z,12.90
2018-04-19T02:54:49.982Z,13.00
2018-04-19T02:57:16.922Z,12.90
2018-04-19T02:59:43.853Z,12.80
2018-04-19T03:02:11.475Z,12.70
2018-04-19T03:04:38.449Z,12.70
2018-04-19T03:07:06.124Z,12.60
2018-04-19T03:09:33.050Z,12.60
2018-04-19T03:11:59.980Z,12.50
2018-04-19T03:14:26.913Z,12.60
2018-04-19T03:16:53.969Z,12.50
2018-04-19T03:19:20.834Z,12.60
2018-04-19T03:21:48.509Z,12.50
2018-04-19T03:24:16.179Z,12.50
2018-04-19T03:26:43.102Z,12.50
2018-04-19T03:29:09.973Z,12.50
2018-04-19T03:31:36.995Z,12.60
2018-04-19T03:34:03.878Z,12.60
2018-04-19T03:36:30.823Z,12.70
2018-04-19T03:38:57.686Z,12.80
2018-04-19T03:41:24.554Z,13.00
2018-04-19T03:43:51.541Z,13.00
2018-04-19T03:46:19.214Z,13.10
2018-04-19T03:48:46.157Z,13.10
2018-04-19T03:51:13.045Z,13.10
2018-04-19T03:53:39.990Z,13.20
2018-04-19T03:56:06.857Z,13.30
2018-04-19T03:58:33.784Z,13.40
2018-04-19T04:01:00.760Z,13.40
2018-04-19T04:03:27.662Z,13.40
2018-04-19T04:05:54.601Z,13.40
2018-04-19T04:08:21.470Z,13.30
2018-04-19T04:10:48.399Z,13.30
2018-04-19T04:13:15.277Z,13.30
2018-04-19T04:15:43.222Z,13.40
2018-04-19T04:18:22.119Z,13.30
2018-04-19T04:21:01.198Z,13.30
2018-04-19T04:23:52.350Z,13.10
2018-04-19T04:26:26.252Z,13.00
2018-04-19T04:28:53.210Z,13.00
2018-04-19T04:31:20.175Z,13.00
2018-04-19T04:33:47.037Z,12.90
2018-04-19T04:36:28.191Z,12.80
2018-04-19T04:39:09.258Z,12.90
2018-04-19T04:41:36.582Z,12.90
2018-04-19T04:44:03.481Z,13.10
2018-04-19T04:46:30.362Z,13.00
2018-04-19T04:48:57.290Z,13.20
2018-04-19T04:51:24.368Z,13.20
2018-04-19T04:53:51.262Z,13.30
2018-04-19T04:56:23.786Z,13.30
2018-04-19T04:58:53.118Z,13.30
2018-04-19T05:01:32.763Z,13.40
2018-04-19T05:04:04.343Z,13.50
2018-04-19T05:06:31.636Z,13.70
2018-04-19T05:09:05.717Z,13.80
2018-04-19T05:11:37.290Z,14.20
2018-04-19T05:14:11.062Z,14.20
2018-04-19T05:16:40.994Z,14.70
2018-04-19T05:19:11.062Z,14.90
2018-04-19T05:21:41.326Z,14.50
2018-04-19T05:24:08.666Z,14.50
2018-04-19T05:26:42.296Z,14.50
2018-04-19T05:29:09.698Z,14.30
2018-04-19T05:31:36.681Z,14.00
2018-04-19T05:34:05.943Z,14.10
2018-04-19T05:36:34.705Z,14.40
2018-04-19T05:39:09.739Z,14.40
2018-04-19T05:41:39.185Z,14.40
2018-04-19T05:44:07.437Z,14.70
2018-04-19T05:46:34.501Z,14.80
2018-04-19T05:49:02.498Z,14.80
2018-04-19T05:51:30.090Z,14.80
2018-04-19T05:53:57.076Z,14.90
2018-04-19T05:56:23.946Z,15.00
2018-04-19T05:58:50.948Z,15.00
2018-04-19T06:01:17.869Z,16.80
2018-04-19T06:03:44.897Z,16.80
2018-04-19T06:06:11.776Z,16.80
2018-04-19T06:08:38.700Z,16.60
2018-04-19T06:11:05.685Z,16.70
2018-04-19T06:13:32.543Z,16.90
2018-04-19T06:15:59.539Z,17.00
2018-04-19T06:18:26.402Z,16.90
2018-04-19T06:20:53.376Z,17.10
2018-04-19T06:23:20.314Z,17.00
2018-04-19T06:25:47.302Z,16.90
2018-04-19T06:28:15.083Z,16.80
2018-04-19T06:30:41.956Z,16.80
2018-04-19T06:33:08.825Z,16.80
2018-04-19T06:35:35.752Z,16.80
2018-04-19T06:38:02.692Z,16.70
2018-04-19T06:40:29.558Z,16.80
2018-04-19T06:42:56.501Z,16.70
2018-04-19T06:45:23.590Z,16.80
2018-04-19T06:47:51.321Z,17.50
2018-04-19T06:50:18.186Z,17.50
2018-04-19T06:52:45.054Z,17.60
2018-04-19T06:55:12.721Z,19.00
2018-04-19T06:57:39.582Z,18.90
2018-04-19T07:00:06.586Z,19.60
2018-04-19T07:02:34.266Z,20.10
2018-04-19T07:05:01.140Z,20.10
2018-04-19T07:07:28.058Z,19.30
2018-04-19T07:09:54.939Z,19.40
2018-04-19T07:12:21.878Z,19.50
2018-04-19T07:14:48.758Z,20.20
2018-04-19T07:17:15.745Z,20.10
2018-04-19T07:19:43.371Z,20.50
2018-04-19T07:22:10.235Z,20.50
2018-04-19T07:24:38.033Z,22.70
2018-04-19T07:27:04.966Z,22.70
2018-04-19T07:29:31.902Z,23.40
2018-04-19T07:31:58.835Z,24.40
2018-04-19T07:34:25.769Z,23.60
2018-04-19T07:36:52.646Z,25.50
2018-04-19T07:39:19.565Z,23.80
2018-04-19T07:41:47.175Z,22.80
2018-04-19T07:44:14.098Z,22.80
2018-04-19T07:46:40.962Z,22.50
2018-04-19T07:49:07.894Z,22.50
2018-04-19T07:51:34.825Z,22.30
2018-04-19T07:54:02.465Z,24.00
2018-04-19T07:56:29.410Z,24.00
2018-04-19T07:58:56.336Z,24.20
2018-04-19T08:01:23.290Z,25.50
2018-04-19T08:03:50.291Z,25.20
2018-04-19T08:06:17.162Z,26.50
2018-04-19T08:08:44.099Z,26.60
2018-04-19T08:11:10.980Z,27.30
2018-04-19T08:13:37.839Z,30.10
2018-04-19T08:16:04.761Z,30.20
2018-04-19T08:18:31.697Z,30.00
2018-04-19T08:20:58.609Z,30.50
2018-04-19T08:23:25.527Z,29.70
2018-04-19T08:25:53.170Z,32.90
2018-04-19T08:28:20.090Z,32.80
2018-04-19T08:30:47.007Z,33.90
2018-04-19T08:33:13.878Z,35.00
2018-04-19T08:35:40.850Z,34.50
2018-04-19T08:38:07.803Z,36.20
2018-04-19T08:40:34.725Z,35.50
2018-04-19T08:43:01.664Z,34.30
2018-04-19T08:45:28.538Z,34.00
2018-04-19T08:47:55.389Z,35.20
2018-04-19T08:50:22.327Z,36.90
2018-04-19T08:52:49.183Z,36.30
2018-04-19T08:55:16.130Z,37.00
2018-04-19T08:57:42.989Z,36.60
2018-04-19T09:00:09.935Z,36.20
2018-04-19T09:02:36.794Z,35.00
2018-04-19T09:05:03.731Z,34.20
2018-04-19T09:07:31.329Z,33.90
2018-04-19T09:09:58.342Z,33.90
2018-04-19T09:12:26.010Z,30.60
2018-04-19T09:14:52.950Z,30.50
2018-04-19T09:17:19.901Z,32.10
2018-04-19T09:19:46.770Z,30.40
2018-04-19T09:22:13.793Z,30.40
2018-04-19T09:24:40.663Z,31.50
2018-04-19T09:27:07.667Z,31.30
2018-04-19T09:29:35.337Z,30.40
2018-04-19T09:32:03.027Z,30.60
2018-04-19T09:34:29.915Z,30.60
2018-04-19T09:36:56.868Z,31.00
2018-04-19T09:39:23.719Z,31.60
2018-04-19T09:41:50.660Z,32.00
2018-04-19T09:44:17.525Z,32.60
2018-04-19T09:46:45.128Z,32.00
2018-04-19T09:49:12.071Z,32.00
2018-04-19T09:51:38.938Z,30.40
2018-04-19T09:54:05.915Z,31.00
2018-04-19T09:56:32.894Z,29.90
2018-04-19T09:59:12.867Z,29.90
2018-04-19T10:01:45.907Z,28.50
2018-04-19T10:04:13.755Z,29.60
2018-04-19T10:06:40.812Z,29.30
2018-04-19T10:09:08.450Z,28.70
2018-04-19T10:11:35.405Z,28.70
2018-04-19T10:14:03.227Z,28.10
2018-04-19T10:16:30.106Z,28.60
2018-04-19T10:18:57.086Z,27.80
2018-04-19T10:21:24.839Z,28.10
2018-04-19T10:23:51.779Z,28.10
2018-04-19T10:26:18.656Z,27.90
2018-04-19T10:28:45.615Z,28.50
2018-04-19T10:31:12.543Z,28.60
2018-04-19T10:33:39.502Z,28.70
2018-04-19T10:36:06.377Z,28.00
2018-04-19T10:38:33.250Z,27.70
2018-04-19T10:41:00.257Z,28.30
2018-04-19T10:43:27.143Z,28.10
2018-04-19T10:45:54.074Z,28.90
2018-04-19T10:48:20.931Z,28.70
2018-04-19T10:50:47.850Z,28.80
2018-04-19T10:53:14.727Z,28.40
2018-04-19T10:55:41.677Z,29.10
2018-04-19T10:58:08.534Z,29.40
2018-04-19T11:00:35.421Z,29.10
2018-04-19T11:03:02.349Z,28.80
2018-04-19T11:05:29.298Z,28.30
2018-04-19T11:07:56.163Z,29.00
2018-04-19T11:10:23.088Z,28.90
2018-04-19T11:12:50.029Z,29.10
2018-04-19T11:15:16.973Z,29.10
2018-04-19T11:17:43.894Z,28.50
2018-04-19T11:20:10.877Z,29.10
2018-04-19T11:22:37.737Z,29.10
2018-04-19T11:25:04.678Z,29.10
2018-04-19T11:27:31.592Z,29.10
2018-04-19T11:29:59.206Z,28.80
2018-04-19T11:32:26.119Z,28.70
2018-04-19T11:34:53.047Z,28.40
2018-04-19T11:37:22.314Z,28.30
2018-04-19T11:39:49.242Z,28.20
2018-04-19T11:42:24.632Z,28.50
2018-04-19T11:45:04.422Z,28.20
2018-04-19T11:47:45.934Z,28.70
2018-04-19T11:50:13.493Z,28.70
2018-04-19T11:52:40.426Z,29.00
2018-04-19T11:55:07.294Z,28.80
2018-04-19T11:57:34.216Z,28.80
2018-04-19T12:00:01.082Z,28.80
2018-04-19T12:02:28.025Z,28.70
2018-04-19T12:04:54.886Z,29.20
2018-04-19T12:07:21.743Z,28.80
2018-04-19T12:09:49.421Z,29.00
2018-04-19T12:12:16.281Z,29.00
2018-04-19T12:15:01.185Z,29.20
2018-04-19T12:17:36.054Z,29.80
2018-04-19T12:20:05.224Z,29.50
2018-04-19T12:22:32.168Z,29.50
2018-04-19T12:24:59.040Z,29.30
2018-04-19T12:27:28.567Z,29.40
2018-04-19T12:29:58.097Z,29.50
2018-04-19T12:32:26.842Z,29.00
2018-04-19T12:37:39.137Z,29.40
2018-04-19T12:40:08.764Z,29.20
2018-04-19T12:42:36.459Z,29.10
2018-04-19T12:45:06.363Z,29.30
2018-04-19T12:47:33.965Z,29.10
2018-04-19T12:50:03.526Z,29.00
2018-04-19T12:52:32.432Z,29.30
2018-04-19T12:54:59.419Z,29.00
2018-04-19T12:57:29.118Z,28.90
2018-04-19T12:59:55.969Z,28.80
2018-04-19T13:02:26.232Z,29.10
2018-04-19T13:04:53.270Z,29.00
2018-04-19T13:07:21.121Z,29.20
2018-04-19T13:09:49.022Z,29.10
2018-04-19T13:12:22.220Z,29.10
2018-04-19T13:14:49.319Z,29.10
2018-04-19T13:17:16.182Z,29.40
2018-04-19T13:19:49.631Z,29.20
2018-04-19T13:22:17.759Z,29.20
2018-04-19T13:24:54.566Z,29.10
2018-04-19T13:27:22.274Z,29.00
2018-04-19T13:29:57.383Z,29.00
2018-04-19T13:35:07.992Z,28.90
2018-04-19T13:37:36.011Z,29.10
2018-04-19T13:40:03.000Z,28.90
2018-04-19T13:42:30.655Z,28.90
2018-04-19T13:44:58.423Z,29.00
2018-04-19T13:47:25.291Z,29.00
2018-04-19T13:50:02.923Z,29.10
2018-04-19T13:52:42.359Z,29.20
2018-04-19T13:55:13.069Z,29.20
2018-04-19T13:57:41.978Z,29.10
2018-04-19T14:00:11.176Z,29.50
2018-04-19T14:02:47.313Z,29.20
2018-04-19T14:05:14.399Z,29.10
2018-04-19T14:07:41.358Z,29.10
2018-04-19T14:10:09.546Z,29.00
2018-04-19T14:12:36.953Z,29.00
2018-04-19T14:15:03.970Z,29.20
2018-04-19T14:17:35.291Z,29.50
2018-04-19T14:20:03.335Z,29.20
2018-04-19T14:25:13.849Z,29.30
2018-04-19T14:27:48.314Z,29.20
2018-04-19T14:30:15.699Z,29.30
2018-04-19T14:32:56.266Z,29.10
2018-04-19T14:35:23.561Z,29.20
2018-04-19T14:37:50.479Z,29.20
2018-04-19T14:40:19.658Z,28.70
2018-04-19T14:42:47.453Z,28.80
2018-04-19T14:45:27.404Z,28.80
2018-04-19T14:47:55.034Z,28.60
2018-04-19T14:50:31.469Z,28.70
2018-04-19T14:53:00.881Z,28.70
2018-04-19T14:58:17.999Z,28.60
2018-04-19T15:00:44.907Z,28.40
2018-04-19T15:03:13.822Z,28.90
2018-04-19T15:05:50.130Z,28.70
2018-04-19T15:08:29.107Z,28.70
2018-04-19T15:10:59.571Z,28.90
2018-04-19T15:13:26.924Z,28.90
2018-04-19T15:15:57.408Z,28.90
2018-04-19T15:18:26.818Z,28.70
2018-04-19T15:20:53.758Z,28.70
2018-04-19T15:23:21.363Z,28.40
2018-04-19T15:25:55.696Z,28.50
2018-04-19T15:28:22.705Z,28.50
2018-04-19T15:30:52.182Z,28.60
2018-04-19T15:33:23.638Z,28.40
2018-04-19T15:35:51.417Z,28.40
2018-04-19T15:38:18.346Z,28.50
2018-04-19T15:40:54.424Z,28.30
2018-04-19T15:43:24.182Z,28.30
2018-04-19T15:46:01.580Z,28.30
2018-04-19T15:48:28.486Z,28.30
2018-04-19T15:50:55.430Z,28.10
2018-04-19T15:53:23.049Z,28.20
2018-04-19T15:55:51.145Z,28.20
2018-04-19T15:58:18.648Z,28.30
2018-04-19T16:00:46.273Z,28.20
2018-04-19T16:03:16.986Z,28.10
2018-04-19T16:05:45.933Z,28.10
2018-04-19T16:08:12.883Z,28.00
2018-04-19T16:10:39.767Z,28.00
2018-04-19T16:13:06.630Z,27.90
2018-04-19T16:15:33.849Z,28.00
2018-04-19T16:18:00.830Z,27.80
2018-04-19T16:20:28.097Z,27.80
2018-04-19T16:22:56.047Z,27.70
2018-04-19T16:25:22.983Z,27.60
2018-04-19T16:27:49.958Z,27.80
2018-04-19T16:30:16.957Z,27.70
2018-04-19T16:32:43.809Z,27.60
2018-04-19T16:35:10.890Z,27.60
2018-04-19T16:37:37.757Z,27.40
2018-04-19T16:40:05.454Z,27.50
2018-04-19T16:42:32.367Z,27.50
2018-04-19T16:45:01.310Z,27.50
2018-04-19T16:47:29.079Z,27.50
2018-04-19T16:49:58.849Z,27.50
2018-04-19T16:52:29.282Z,27.40
2018-04-19T16:55:00.776Z,27.30
2018-04-19T16:57:28.954Z,27.20
2018-04-19T16:59:56.890Z,27.30
2018-04-19T17:02:24.325Z,27.20
2018-04-19T17:04:51.270Z,27.10
2018-04-19T17:07:19.146Z,27.00
2018-04-19T17:09:46.083Z,27.00
2018-04-19T17:12:13.089Z,27.10
2018-04-19T17:14:40.066Z,26.90
2018-04-19T17:17:07.089Z,26.90
2018-04-19T17:19:33.956Z,26.90
2018-04-19T17:22:01.574Z,26.70
2018-04-19T17:24:28.562Z,26.70
2018-04-19T17:26:56.307Z,26.50
2018-04-19T17:29:23.242Z,26.50
2018-04-19T17:31:50.173Z,26.50
2018-04-19T17:34:17.050Z,26.50
2018-04-19T17:36:43.997Z,26.40
2018-04-19T17:39:10.885Z,26.20
2018-04-19T17:41:37.837Z,26.20
2018-04-19T17:44:04.778Z,26.10
2018-04-19T17:46:31.641Z,26.10
2018-04-19T17:48:58.523Z,25.90
2018-04-19T17:51:25.457Z,25.80
2018-04-19T17:53:52.373Z,25.70
2018-04-19T17:56:19.297Z,25.60
2018-04-19T17:58:46.898Z,25.30
2018-04-19T18:01:13.825Z,25.30
2018-04-19T18:03:40.674Z,25.20
2018-04-19T18:06:07.623Z,25.10
2018-04-19T18:08:34.497Z,24.90
2018-04-19T18:11:01.372Z,24.80
2018-04-19T18:13:29.060Z,24.60
2018-04-19T18:15:56.014Z,24.60
2018-04-19T18:18:22.952Z,24.30
2018-04-19T18:20:49.814Z,24.20
2018-04-19T18:23:16.809Z,24.10
2018-04-19T18:25:43.742Z,23.90
2018-04-19T18:28:10.713Z,23.80
2018-04-19T18:30:38.318Z,23.60
2018-04-19T18:33:05.186Z,23.60
2018-04-19T18:35:32.143Z,23.50
2018-04-19T18:37:59.043Z,23.40
2018-04-19T18:40:25.985Z,23.30
2018-04-19T18:42:52.880Z,23.20
2018-04-19T18:45:21.105Z,23.10
2018-04-19T18:47:49.161Z,22.90
2018-04-19T18:50:16.125Z,22.90
2018-04-19T18:52:42.994Z,22.90
2018-04-19T18:55:09.857Z,22.80
2018-04-19T18:57:36.790Z,22.80
2018-04-19T19:00:03.712Z,22.60
2018-04-19T19:02:30.772Z,22.60
2018-04-19T19:04:57.650Z,22.60
2018-04-19T19:07:24.710Z,22.60
2018-04-19T19:09:55.434Z,22.30
2018-04-19T19:12:36.594Z,22.30
2018-04-19T19:15:37.477Z,22.20
2018-04-19T19:18:27.087Z,21.90
2018-04-19T19:21:06.923Z,21.90
2018-04-19T19:23:48.977Z,21.80
2018-04-19T19:26:30.026Z,21.60
2018-04-19T19:29:12.842Z,21.30
2018-04-19T19:31:56.683Z,21.20
2018-04-19T19:34:39.070Z,21.20
2018-04-19T19:37:21.383Z,21.20
2018-04-19T19:40:04.283Z,21.20
2018-04-19T19:42:44.313Z,21.10
2018-04-19T19:45:25.689Z,21.00
2018-04-19T19:48:08.201Z,21.00
2018-04-19T19:50:50.868Z,20.70
2018-04-19T19:53:34.166Z,20.50
2018-04-19T19:56:16.611Z,20.50
2018-04-19T19:58:58.697Z,20.50
2018-04-19T20:01:40.337Z,20.40
2018-04-19T20:04:21.604Z,20.40
2018-04-19T20:06:49.420Z,20.30
2018-04-19T20:09:17.090Z,20.10
2018-04-19T20:11:45.203Z,20.00
2018-04-19T20:14:12.078Z,20.00
2018-04-19T20:19:29.886Z,19.80
2018-04-19T20:22:11.177Z,19.80
2018-04-19T20:24:52.267Z,19.80
2018-04-19T20:27:34.597Z,19.70
2018-04-19T20:30:17.353Z,19.60
2018-04-19T20:32:59.425Z,19.50
2018-04-19T20:35:39.028Z,19.50
2018-04-19T20:38:20.301Z,19.60
2018-04-19T20:41:02.740Z,19.50
2018-04-19T20:43:44.424Z,19.50
2018-04-19T20:46:25.267Z,19.50
2018-04-19T20:49:06.406Z,19.50
2018-04-19T20:51:47.714Z,19.50
2018-04-19T20:54:29.159Z,19.60
2018-04-19T20:57:10.374Z,19.60
2018-04-19T20:59:49.937Z,19.50
2018-04-19T21:02:32.522Z,19.50
2018-04-19T21:05:13.960Z,19.50
2018-04-19T21:07:55.663Z,19.40
2018-04-19T21:10:39.637Z,19.20
2018-04-19T21:13:21.719Z,19.20
2018-04-19T21:16:03.137Z,19.10
2018-04-19T21:18:45.421Z,19.10
2018-04-19T21:21:26.297Z,19.10
2018-04-19T21:26:51.145Z,18.90
2018-04-19T21:29:37.127Z,19.00
2018-04-19T21:32:17.892Z,19.00
2018-04-19T21:34:59.242Z,19.00
2018-04-19T21:37:38.825Z,18.90
2018-04-19T21:43:06.772Z,18.50
2018-04-19T21:48:34.482Z,18.40
2018-04-19T21:51:02.448Z,18.30
2018-04-19T21:53:29.360Z,18.30
2018-04-19T21:55:57.998Z,18.40
2018-04-19T21:58:25.707Z,18.50
2018-04-19T22:00:52.654Z,18.50
2018-04-19T22:03:19.623Z,18.40
2018-04-19T22:05:46.574Z,18.40
2018-04-19T22:08:13.449Z,18.30
2018-04-19T22:10:40.370Z,18.30
2018-04-19T22:13:07.234Z,18.20
2018-04-19T22:15:34.942Z,18.20
2018-04-19T22:18:01.810Z,18.20
2018-04-19T22:20:28.738Z,18.10
2018-04-19T22:22:55.735Z,18.10
2018-04-19T22:25:23.353Z,18.00
2018-04-19T22:27:50.217Z,17.90
2018-04-19T22:30:17.154Z,17.90
2018-04-19T22:32:44.018Z,17.80
2018-04-19T22:35:10.970Z,17.70
2018-04-19T22:37:37.830Z,17.60
2018-04-19T22:40:04.701Z,17.70
2018-04-19T22:42:31.682Z,17.60
2018-04-19T22:44:58.560Z,17.60
2018-04-19T22:47:26.194Z,17.60
2018-04-19T22:49:53.196Z,17.60
2018-04-19T22:52:20.077Z,17.50
2018-04-19T22:54:46.944Z,17.40
2018-04-19T22:57:13.888Z,17.30
2018-04-19T22:59:40.747Z,17.20
2018-04-19T23:02:08.417Z,17.20
2018-04-19T23:04:36.001Z,17.20
2018-04-19T23:07:02.958Z,17.20
2018-04-19T23:09:29.822Z,17.30
2018-04-19T23:11:56.826Z,17.20
2018-04-19T23:14:23.706Z,17.30
2018-04-19T23:16:50.608Z,17.30
2018-04-19T23:19:17.549Z,17.20
2018-04-19T23:21:45.209Z,17.10
2018-04-19T23:24:12.878Z,17.10
2018-04-19T23:26:40.557Z,17.10
2018-04-19T23:29:07.415Z,17.00
2018-04-19T23:31:34.353Z,16.90
2018-04-19T23:34:01.302Z,16.60
2018-04-19T23:36:28.252Z,16.60
2018-04-19T23:38:55.185Z,16.50
2018-04-19T23:41:22.131Z,16.40
2018-04-19T23:43:49.086Z,16.50
2018-04-19T23:46:16.028Z,16.60
2018-04-19T23:48:42.903Z,16.60
2018-04-19T23:51:09.845Z,16.60
2018-04-19T23:53:36.785Z,16.70
2018-04-19T23:56:03.737Z,16.60
2018-04-19T23:58:30.610Z,16.70
